sensor_id;sensor_type;location;lat;lon;timestamp;pressure;altitude;pressure_sealevel;temperature;humidity
67052;BME280;53957;47.222;18.670;2023-01-01T00:01:29;101169.13;;;4.58;100.00
67052;BME280;53957;47.222;18.670;2023-01-01T00:04:32;101174.06;;;4.91;100.00
67052;BME280;53957;47.222;18.670;2023-01-01T00:07:36;101180.91;;;4.99;100.00
67052;BME280;53957;47.222;18.670;2023-01-01T00:10:39;101180.72;;;5.31;100.00
67052;BME280;53957;47.222;18.670;2023-01-01T00:13:42;101177.41;;;5.17;100.00
67052;BME280;53957;47.222;18.670;2023-01-01T00:16:46;101169.44;;;4.68;100.00
67052;BME280;53957;47.222;18.670;2023-01-01T00:20:09;101170.13;;;4.38;100.00
67052;BME280;53957;47.222;18.670;2023-01-01T00:23:13;101175.38;;;3.94;100.00
67052;BME280;53957;47.222;18.670;2023-01-01T00:26:16;101174.34;;;3.95;100.00
67052;BME280;53957;47.222;18.670;2023-01-01T00:29:20;101177.47;;;3.85;100.00
67052;BME280;53957;47.222;18.670;2023-01-01T00:32:22;101175.41;;;3.87;100.00
67052;BME280;53957;47.222;18.670;2023-01-01T00:35:26;101172.22;;;3.79;100.00
67052;BME280;53957;47.222;18.670;2023-01-01T00:38:34;101166.16;;;3.71;100.00
67052;BME280;53957;47.222;18.670;2023-01-01T00:41:37;101167.75;;;3.79;100.00
67052;BME280;53957;47.222;18.670;2023-01-01T00:44:40;101177.13;;;4.26;100.00
67052;BME280;53957;47.222;18.670;2023-01-01T00:47:44;101172.50;;;4.46;100.00
67052;BME280;53957;47.222;18.670;2023-01-01T00:50:47;101177.69;;;4.53;100.00
67052;BME280;53957;47.222;18.670;2023-01-01T00:53:52;101172.50;;;4.46;100.00
67052;BME280;53957;47.222;18.670;2023-01-01T00:57:19;101188.81;;;4.62;100.00
67052;BME280;53957;47.222;18.670;2023-01-01T01:00:27;101190.66;;;4.11;100.00
67052;BME280;53957;47.222;18.670;2023-01-01T01:03:32;101183.81;;;4.03;100.00
67052;BME280;53957;47.222;18.670;2023-01-01T01:06:35;101190.50;;;3.80;100.00
67052;BME280;53957;47.222;18.670;2023-01-01T01:09:38;101193.50;;;3.84;100.00
67052;BME280;53957;47.222;18.670;2023-01-01T01:12:43;101196.31;;;3.57;100.00
67052;BME280;53957;47.222;18.670;2023-01-01T01:15:46;101192.53;;;3.78;100.00
67052;BME280;53957;47.222;18.670;2023-01-01T01:19:17;101201.59;;;3.57;100.00
67052;BME280;53957;47.222;18.670;2023-01-01T01:22:21;101194.41;;;3.71;100.00
67052;BME280;53957;47.222;18.670;2023-01-01T01:25:30;101190.66;;;3.53;100.00
67052;BME280;53957;47.222;18.670;2023-01-01T01:28:33;101189.50;;;3.75;100.00
67052;BME280;53957;47.222;18.670;2023-01-01T01:31:37;101170.88;;;3.63;100.00
67052;BME280;53957;47.222;18.670;2023-01-01T01:34:40;101174.94;;;3.27;100.00
67052;BME280;53957;47.222;18.670;2023-01-01T01:37:43;101180.25;;;3.13;100.00
67052;BME280;53957;47.222;18.670;2023-01-01T01:40:46;101179.91;;;3.03;100.00
67052;BME280;53957;47.222;18.670;2023-01-01T01:46:56;101174.31;;;2.79;100.00
67052;BME280;53957;47.222;18.670;2023-01-01T01:53:16;101180.81;;;2.77;100.00
67052;BME280;53957;47.222;18.670;2023-01-01T01:56:30;101180.19;;;2.74;100.00
67052;BME280;53957;47.222;18.670;2023-01-01T01:59:49;101175.97;;;2.67;100.00
67052;BME280;53957;47.222;18.670;2023-01-01T02:03:08;101190.16;;;2.46;100.00
67052;BME280;53957;47.222;18.670;2023-01-01T02:06:13;101187.72;;;2.44;100.00
67052;BME280;53957;47.222;18.670;2023-01-01T02:09:17;101186.41;;;3.00;100.00
67052;BME280;53957;47.222;18.670;2023-01-01T02:12:20;101190.97;;;2.60;100.00
67052;BME280;53957;47.222;18.670;2023-01-01T02:15:28;101188.03;;;2.95;100.00
67052;BME280;53957;47.222;18.670;2023-01-01T02:18:42;101188.16;;;2.54;100.00
67052;BME280;53957;47.222;18.670;2023-01-01T02:22:14;101187.34;;;2.34;100.00
67052;BME280;53957;47.222;18.670;2023-01-01T02:25:42;101184.91;;;2.19;100.00
67052;BME280;53957;47.222;18.670;2023-01-01T02:29:11;101192.59;;;1.93;100.00
67052;BME280;53957;47.222;18.670;2023-01-01T02:32:20;101202.06;;;1.81;100.00
67052;BME280;53957;47.222;18.670;2023-01-01T02:35:27;101205.28;;;1.70;100.00
67052;BME280;53957;47.222;18.670;2023-01-01T02:38:45;101213.75;;;1.58;100.00
67052;BME280;53957;47.222;18.670;2023-01-01T02:41:52;101216.72;;;1.42;100.00
67052;BME280;53957;47.222;18.670;2023-01-01T02:44:58;101226.13;;;1.65;100.00
67052;BME280;53957;47.222;18.670;2023-01-01T02:48:35;101210.75;;;1.75;100.00
67052;BME280;53957;47.222;18.670;2023-01-01T02:54:57;101219.28;;;1.77;100.00
67052;BME280;53957;47.222;18.670;2023-01-01T02:58:11;101216.44;;;1.72;100.00
67052;BME280;53957;47.222;18.670;2023-01-01T03:01:41;101202.50;;;1.78;100.00
67052;BME280;53957;47.222;18.670;2023-01-01T03:08:15;101196.19;;;1.72;100.00
67052;BME280;53957;47.222;18.670;2023-01-01T03:11:22;101196.81;;;1.74;100.00
67052;BME280;53957;47.222;18.670;2023-01-01T03:14:59;101195.44;;;1.85;100.00
67052;BME280;53957;47.222;18.670;2023-01-01T03:18:12;101201.06;;;1.89;100.00
67052;BME280;53957;47.222;18.670;2023-01-01T03:21:19;101203.66;;;1.62;100.00
67052;BME280;53957;47.222;18.670;2023-01-01T03:24:31;101213.31;;;1.41;100.00
67052;BME280;53957;47.222;18.670;2023-01-01T03:30:49;101214.62;;;1.79;100.00
67052;BME280;53957;47.222;18.670;2023-01-01T03:34:05;101221.91;;;1.84;100.00
67052;BME280;53957;47.222;18.670;2023-01-01T03:37:14;101205.91;;;1.79;100.00
67052;BME280;53957;47.222;18.670;2023-01-01T03:40:21;101204.25;;;1.57;100.00
67052;BME280;53957;47.222;18.670;2023-01-01T03:44:11;101195.53;;;1.50;100.00
67052;BME280;53957;47.222;18.670;2023-01-01T03:47:17;101194.47;;;1.31;100.00
67052;BME280;53957;47.222;18.670;2023-01-01T03:50:29;101190.63;;;1.34;100.00
67052;BME280;53957;47.222;18.670;2023-01-01T03:53:40;101186.44;;;1.53;100.00
67052;BME280;53957;47.222;18.670;2023-01-01T03:56:48;101185.22;;;1.55;100.00
67052;BME280;53957;47.222;18.670;2023-01-01T04:00:06;101193.37;;;1.81;100.00
67052;BME280;53957;47.222;18.670;2023-01-01T04:03:21;101199.56;;;1.53;100.00
67052;BME280;53957;47.222;18.670;2023-01-01T04:06:25;101211.59;;;1.20;100.00
67052;BME280;53957;47.222;18.670;2023-01-01T04:09:31;101213.00;;;1.16;100.00
67052;BME280;53957;47.222;18.670;2023-01-01T04:12:56;101215.38;;;1.11;100.00
67052;BME280;53957;47.222;18.670;2023-01-01T04:15:59;101213.37;;;1.06;100.00
67052;BME280;53957;47.222;18.670;2023-01-01T04:19:19;101200.75;;;0.95;100.00
67052;BME280;53957;47.222;18.670;2023-01-01T04:22:22;101189.22;;;1.31;100.00
67052;BME280;53957;47.222;18.670;2023-01-01T04:25:28;101195.22;;;1.18;100.00
67052;BME280;53957;47.222;18.670;2023-01-01T04:28:51;101191.16;;;1.84;100.00
67052;BME280;53957;47.222;18.670;2023-01-01T04:31:54;101178.22;;;1.89;100.00
67052;BME280;53957;47.222;18.670;2023-01-01T04:35:02;101194.19;;;1.81;100.00
67052;BME280;53957;47.222;18.670;2023-01-01T04:38:05;101185.50;;;2.01;100.00
67052;BME280;53957;47.222;18.670;2023-01-01T04:41:08;101184.09;;;2.05;100.00
67052;BME280;53957;47.222;18.670;2023-01-01T04:44:11;101173.78;;;2.30;100.00
67052;BME280;53957;47.222;18.670;2023-01-01T04:47:19;101188.16;;;2.41;100.00
67052;BME280;53957;47.222;18.670;2023-01-01T04:50:23;101183.66;;;2.68;100.00
67052;BME280;53957;47.222;18.670;2023-01-01T04:53:30;101184.25;;;2.70;100.00
67052;BME280;53957;47.222;18.670;2023-01-01T04:56:34;101171.09;;;2.70;100.00
67052;BME280;53957;47.222;18.670;2023-01-01T04:59:57;101170.44;;;2.82;100.00
67052;BME280;53957;47.222;18.670;2023-01-01T05:03:02;101152.41;;;2.85;100.00
67052;BME280;53957;47.222;18.670;2023-01-01T05:06:10;101158.66;;;2.91;100.00
67052;BME280;53957;47.222;18.670;2023-01-01T05:09:14;101147.53;;;2.82;100.00
67052;BME280;53957;47.222;18.670;2023-01-01T05:12:17;101151.19;;;2.81;100.00
67052;BME280;53957;47.222;18.670;2023-01-01T05:15:22;101145.06;;;2.94;100.00
67052;BME280;53957;47.222;18.670;2023-01-01T05:18:24;101156.59;;;3.00;100.00
67052;BME280;53957;47.222;18.670;2023-01-01T05:21:31;101161.69;;;3.01;100.00
67052;BME280;53957;47.222;18.670;2023-01-01T05:24:34;101150.09;;;3.09;100.00
67052;BME280;53957;47.222;18.670;2023-01-01T05:27:39;101155.97;;;3.11;100.00
67052;BME280;53957;47.222;18.670;2023-01-01T05:30:42;101156.72;;;3.18;100.00
67052;BME280;53957;47.222;18.670;2023-01-01T05:33:52;101157.69;;;2.85;100.00
67052;BME280;53957;47.222;18.670;2023-01-01T05:36:55;101165.84;;;2.50;100.00
67052;BME280;53957;47.222;18.670;2023-01-01T05:39:58;101170.94;;;2.25;100.00
67052;BME280;53957;47.222;18.670;2023-01-01T05:43:21;101162.37;;;2.56;100.00
67052;BME280;53957;47.222;18.670;2023-01-01T05:46:24;101166.84;;;2.69;100.00
67052;BME280;53957;47.222;18.670;2023-01-01T05:49:27;101176.00;;;2.40;100.00
67052;BME280;53957;47.222;18.670;2023-01-01T05:52:30;101168.81;;;2.74;100.00
67052;BME280;53957;47.222;18.670;2023-01-01T05:55:33;101167.38;;;2.92;100.00
67052;BME280;53957;47.222;18.670;2023-01-01T05:58:44;101168.53;;;3.02;100.00
67052;BME280;53957;47.222;18.670;2023-01-01T06:01:47;101173.50;;;2.72;100.00
67052;BME280;53957;47.222;18.670;2023-01-01T06:04:50;101176.16;;;2.65;100.00
67052;BME280;53957;47.222;18.670;2023-01-01T06:07:53;101183.28;;;2.45;100.00
67052;BME280;53957;47.222;18.670;2023-01-01T06:11:01;101196.25;;;2.19;100.00
67052;BME280;53957;47.222;18.670;2023-01-01T06:14:04;101205.94;;;1.85;100.00
67052;BME280;53957;47.222;18.670;2023-01-01T06:17:10;101215.56;;;1.51;100.00
67052;BME280;53957;47.222;18.670;2023-01-01T06:20:13;101237.59;;;1.43;100.00
67052;BME280;53957;47.222;18.670;2023-01-01T06:23:16;101244.22;;;1.33;100.00
67052;BME280;53957;47.222;18.670;2023-01-01T06:26:22;101242.38;;;1.33;100.00
67052;BME280;53957;47.222;18.670;2023-01-01T06:29:26;101254.72;;;1.33;100.00
67052;BME280;53957;47.222;18.670;2023-01-01T06:32:29;101261.19;;;1.30;100.00
67052;BME280;53957;47.222;18.670;2023-01-01T06:35:32;101250.72;;;1.43;100.00
67052;BME280;53957;47.222;18.670;2023-01-01T06:38:42;101254.44;;;1.63;100.00
67052;BME280;53957;47.222;18.670;2023-01-01T06:41:46;101259.91;;;1.68;100.00
67052;BME280;53957;47.222;18.670;2023-01-01T06:44:48;101274.25;;;1.58;100.00
67052;BME280;53957;47.222;18.670;2023-01-01T06:47:52;101281.28;;;1.51;100.00
67052;BME280;53957;47.222;18.670;2023-01-01T06:50:55;101276.66;;;1.53;100.00
67052;BME280;53957;47.222;18.670;2023-01-01T06:54:00;101292.94;;;1.35;100.00
67052;BME280;53957;47.222;18.670;2023-01-01T06:57:03;101306.50;;;1.32;100.00
67052;BME280;53957;47.222;18.670;2023-01-01T07:00:09;101305.09;;;1.36;100.00
67052;BME280;53957;47.222;18.670;2023-01-01T07:03:12;101292.28;;;1.68;100.00
67052;BME280;53957;47.222;18.670;2023-01-01T07:06:15;101281.81;;;1.88;100.00
67052;BME280;53957;47.222;18.670;2023-01-01T07:09:18;101295.41;;;1.85;100.00
67052;BME280;53957;47.222;18.670;2023-01-01T07:12:21;101293.03;;;2.24;100.00
67052;BME280;53957;47.222;18.670;2023-01-01T07:15:24;101294.25;;;2.28;100.00
67052;BME280;53957;47.222;18.670;2023-01-01T07:18:27;101290.59;;;2.09;100.00
67052;BME280;53957;47.222;18.670;2023-01-01T07:21:32;101290.81;;;2.28;100.00
67052;BME280;53957;47.222;18.670;2023-01-01T07:24:36;101293.88;;;2.51;100.00
67052;BME280;53957;47.222;18.670;2023-01-01T07:27:39;101291.44;;;2.43;100.00
67052;BME280;53957;47.222;18.670;2023-01-01T07:30:44;101277.28;;;2.51;100.00
67052;BME280;53957;47.222;18.670;2023-01-01T07:33:47;101287.41;;;2.47;100.00
67052;BME280;53957;47.222;18.670;2023-01-01T07:36:50;101283.75;;;2.95;100.00
67052;BME280;53957;47.222;18.670;2023-01-01T07:39:53;101281.44;;;3.26;100.00
67052;BME280;53957;47.222;18.670;2023-01-01T07:42:56;101278.75;;;3.46;100.00
67052;BME280;53957;47.222;18.670;2023-01-01T07:46:00;101278.28;;;3.55;100.00
67052;BME280;53957;47.222;18.670;2023-01-01T07:49:04;101282.13;;;4.05;100.00
67052;BME280;53957;47.222;18.670;2023-01-01T07:52:07;101272.88;;;4.21;100.00
67052;BME280;53957;47.222;18.670;2023-01-01T07:55:13;101279.88;;;4.84;100.00
67052;BME280;53957;47.222;18.670;2023-01-01T07:58:16;101291.00;;;4.68;100.00
67052;BME280;53957;47.222;18.670;2023-01-01T08:01:19;101301.94;;;5.15;100.00
67052;BME280;53957;47.222;18.670;2023-01-01T08:04:26;101309.59;;;5.42;100.00
67052;BME280;53957;47.222;18.670;2023-01-01T08:07:30;101315.72;;;5.92;100.00
67052;BME280;53957;47.222;18.670;2023-01-01T08:10:34;101304.31;;;5.91;100.00
67052;BME280;53957;47.222;18.670;2023-01-01T08:13:37;101314.38;;;5.52;100.00
67052;BME280;53957;47.222;18.670;2023-01-01T08:16:40;101315.03;;;5.47;100.00
67052;BME280;53957;47.222;18.670;2023-01-01T08:19:43;101327.38;;;5.72;100.00
67052;BME280;53957;47.222;18.670;2023-01-01T08:22:51;101323.69;;;5.18;100.00
67052;BME280;53957;47.222;18.670;2023-01-01T08:26:00;101335.59;;;5.45;100.00
67052;BME280;53957;47.222;18.670;2023-01-01T08:29:05;101332.03;;;5.40;100.00
67052;BME280;53957;47.222;18.670;2023-01-01T08:32:28;101336.34;;;5.71;100.00
67052;BME280;53957;47.222;18.670;2023-01-01T08:35:36;101325.09;;;6.25;100.00
67052;BME280;53957;47.222;18.670;2023-01-01T08:38:42;101327.09;;;5.92;100.00
67052;BME280;53957;47.222;18.670;2023-01-01T08:41:46;101321.50;;;6.19;100.00
67052;BME280;53957;47.222;18.670;2023-01-01T08:44:49;101321.59;;;6.12;100.00
67052;BME280;53957;47.222;18.670;2023-01-01T08:47:54;101309.19;;;6.25;100.00
67052;BME280;53957;47.222;18.670;2023-01-01T08:50:58;101304.75;;;7.32;100.00
67052;BME280;53957;47.222;18.670;2023-01-01T08:54:03;101316.34;;;7.43;100.00
67052;BME280;53957;47.222;18.670;2023-01-01T08:57:06;101309.31;;;7.49;100.00
67052;BME280;53957;47.222;18.670;2023-01-01T09:00:11;101327.84;;;7.72;100.00
67052;BME280;53957;47.222;18.670;2023-01-01T09:03:15;101329.22;;;7.75;100.00
67052;BME280;53957;47.222;18.670;2023-01-01T09:06:19;101330.53;;;8.01;100.00
67052;BME280;53957;47.222;18.670;2023-01-01T09:09:21;101317.22;;;7.72;100.00
67052;BME280;53957;47.222;18.670;2023-01-01T09:12:33;101327.78;;;8.42;100.00
67052;BME280;53957;47.222;18.670;2023-01-01T09:15:38;101333.59;;;8.56;100.00
67052;BME280;53957;47.222;18.670;2023-01-01T09:18:43;101336.19;;;9.24;100.00
67052;BME280;53957;47.222;18.670;2023-01-01T09:21:46;101326.84;;;9.22;100.00
67052;BME280;53957;47.222;18.670;2023-01-01T09:24:50;101316.88;;;8.95;100.00
67052;BME280;53957;47.222;18.670;2023-01-01T09:28:12;101330.78;;;8.63;100.00
67052;BME280;53957;47.222;18.670;2023-01-01T09:31:16;101330.91;;;8.39;100.00
67052;BME280;53957;47.222;18.670;2023-01-01T09:34:23;101327.34;;;9.41;100.00
67052;BME280;53957;47.222;18.670;2023-01-01T09:37:26;101333.69;;;8.78;100.00
67052;BME280;53957;47.222;18.670;2023-01-01T09:44:18;101319.75;;;9.72;100.00
67052;BME280;53957;47.222;18.670;2023-01-01T09:47:46;101329.16;;;10.07;100.00
67052;BME280;53957;47.222;18.670;2023-01-01T09:50:49;101327.72;;;10.49;100.00
67052;BME280;53957;47.222;18.670;2023-01-01T09:54:20;101329.88;;;9.97;100.00
67052;BME280;53957;47.222;18.670;2023-01-01T09:57:29;101325.06;;;9.72;100.00
67052;BME280;53957;47.222;18.670;2023-01-01T10:00:33;101325.94;;;10.05;100.00
67052;BME280;53957;47.222;18.670;2023-01-01T10:13:42;101304.06;;;10.30;100.00
67052;BME280;53957;47.222;18.670;2023-01-01T10:16:48;101304.50;;;10.49;100.00
67052;BME280;53957;47.222;18.670;2023-01-01T10:19:57;101307.53;;;10.03;100.00
67052;BME280;53957;47.222;18.670;2023-01-01T10:26:16;101309.41;;;10.62;100.00
67052;BME280;53957;47.222;18.670;2023-01-01T10:29:44;101305.41;;;11.08;100.00
67052;BME280;53957;47.222;18.670;2023-01-01T10:32:51;101305.81;;;10.46;100.00
67052;BME280;53957;47.222;18.670;2023-01-01T10:35:55;101305.38;;;10.27;100.00
67052;BME280;53957;47.222;18.670;2023-01-01T10:38:58;101309.50;;;10.40;100.00
67052;BME280;53957;47.222;18.670;2023-01-01T10:42:01;101312.69;;;10.75;100.00
67052;BME280;53957;47.222;18.670;2023-01-01T10:45:10;101300.09;;;11.13;100.00
67052;BME280;53957;47.222;18.670;2023-01-01T10:48:19;101295.47;;;10.93;100.00
67052;BME280;53957;47.222;18.670;2023-01-01T10:51:23;101282.94;;;10.99;100.00
67052;BME280;53957;47.222;18.670;2023-01-01T10:54:36;101277.22;;;11.27;100.00
67052;BME280;53957;47.222;18.670;2023-01-01T10:57:40;101270.66;;;10.98;100.00
67052;BME280;53957;47.222;18.670;2023-01-01T11:00:56;101266.69;;;11.05;100.00
67052;BME280;53957;47.222;18.670;2023-01-01T11:07:28;101264.34;;;11.19;100.00
67052;BME280;53957;47.222;18.670;2023-01-01T11:10:33;101240.91;;;11.32;100.00
67052;BME280;53957;47.222;18.670;2023-01-01T11:13:36;101237.16;;;11.33;100.00
67052;BME280;53957;47.222;18.670;2023-01-01T11:16:44;101235.84;;;11.46;100.00
67052;BME280;53957;47.222;18.670;2023-01-01T11:19:58;101229.25;;;11.79;100.00
67052;BME280;53957;47.222;18.670;2023-01-01T11:26:31;101227.69;;;12.35;100.00
67052;BME280;53957;47.222;18.670;2023-01-01T11:29:34;101220.75;;;12.23;100.00
67052;BME280;53957;47.222;18.670;2023-01-01T11:32:38;101212.97;;;12.32;100.00
67052;BME280;53957;47.222;18.670;2023-01-01T11:35:49;101224.13;;;12.65;100.00
67052;BME280;53957;47.222;18.670;2023-01-01T11:42:18;101217.94;;;12.80;100.00
67052;BME280;53957;47.222;18.670;2023-01-01T11:45:26;101213.59;;;13.05;100.00
67052;BME280;53957;47.222;18.670;2023-01-01T12:58:55;101179.34;;;13.87;100.00
67052;BME280;53957;47.222;18.670;2023-01-01T13:02:01;101173.44;;;13.50;100.00
67052;BME280;53957;47.222;18.670;2023-01-01T13:05:15;101173.97;;;13.47;100.00
67052;BME280;53957;47.222;18.670;2023-01-01T13:08:19;101172.41;;;13.35;100.00
67052;BME280;53957;47.222;18.670;2023-01-01T13:11:24;101176.22;;;13.74;100.00
67052;BME280;53957;47.222;18.670;2023-01-01T13:14:52;101176.19;;;13.79;100.00
67052;BME280;53957;47.222;18.670;2023-01-01T13:18:43;101179.84;;;13.54;100.00
67052;BME280;53957;47.222;18.670;2023-01-01T13:21:51;101178.66;;;13.20;100.00
67052;BME280;53957;47.222;18.670;2023-01-01T13:28:13;101172.25;;;13.21;100.00
67052;BME280;53957;47.222;18.670;2023-01-01T13:31:17;101173.31;;;13.20;100.00
67052;BME280;53957;47.222;18.670;2023-01-01T13:37:43;101193.25;;;12.99;100.00
67052;BME280;53957;47.222;18.670;2023-01-01T13:40:49;101188.12;;;13.02;100.00
67052;BME280;53957;47.222;18.670;2023-01-01T14:08:31;101204.81;;;12.89;100.00
67052;BME280;53957;47.222;18.670;2023-01-01T14:11:42;101200.31;;;12.64;100.00
67052;BME280;53957;47.222;18.670;2023-01-01T14:14:46;101203.00;;;12.64;100.00
67052;BME280;53957;47.222;18.670;2023-01-01T14:17:51;101205.97;;;12.57;100.00
67052;BME280;53957;47.222;18.670;2023-01-01T14:21:07;101201.41;;;12.57;100.00
67052;BME280;53957;47.222;18.670;2023-01-01T14:24:15;101203.53;;;12.55;100.00
67052;BME280;53957;47.222;18.670;2023-01-01T14:27:20;101205.72;;;12.53;100.00
67052;BME280;53957;47.222;18.670;2023-01-01T14:30:25;101211.91;;;12.38;100.00
67052;BME280;53957;47.222;18.670;2023-01-01T14:33:30;101203.28;;;12.52;100.00
67052;BME280;53957;47.222;18.670;2023-01-01T14:37:18;101195.59;;;12.35;100.00
67052;BME280;53957;47.222;18.670;2023-01-01T14:40:25;101206.78;;;12.37;100.00
67052;BME280;53957;47.222;18.670;2023-01-01T14:43:37;101207.31;;;12.49;100.00
67052;BME280;53957;47.222;18.670;2023-01-01T14:46:51;101208.94;;;12.40;100.00
67052;BME280;53957;47.222;18.670;2023-01-01T14:50:03;101209.50;;;12.21;100.00
67052;BME280;53957;47.222;18.670;2023-01-01T14:53:13;101205.47;;;11.93;100.00
67052;BME280;53957;47.222;18.670;2023-01-01T14:56:31;101214.81;;;11.96;100.00
67052;BME280;53957;47.222;18.670;2023-01-01T14:59:35;101211.06;;;11.66;100.00
67052;BME280;53957;47.222;18.670;2023-01-01T15:02:46;101217.47;;;11.80;100.00
67052;BME280;53957;47.222;18.670;2023-01-01T15:06:01;101209.69;;;11.48;100.00
67052;BME280;53957;47.222;18.670;2023-01-01T15:09:05;101214.78;;;11.59;100.00
67052;BME280;53957;47.222;18.670;2023-01-01T15:12:13;101214.25;;;11.47;100.00
67052;BME280;53957;47.222;18.670;2023-01-01T15:15:35;101231.34;;;11.51;100.00
67052;BME280;53957;47.222;18.670;2023-01-01T15:19:15;101232.94;;;11.52;100.00
67052;BME280;53957;47.222;18.670;2023-01-01T15:22:28;101230.34;;;11.99;100.00
67052;BME280;53957;47.222;18.670;2023-01-01T15:25:35;101237.84;;;11.97;100.00
67052;BME280;53957;47.222;18.670;2023-01-01T15:28:41;101245.25;;;11.69;100.00
67052;BME280;53957;47.222;18.670;2023-01-01T15:31:49;101245.25;;;11.53;100.00
67052;BME280;53957;47.222;18.670;2023-01-01T15:35:29;101246.53;;;11.40;100.00
67052;BME280;53957;47.222;18.670;2023-01-01T15:38:45;101250.03;;;11.41;100.00
67052;BME280;53957;47.222;18.670;2023-01-01T15:41:52;101256.50;;;11.86;100.00
67052;BME280;53957;47.222;18.670;2023-01-01T15:44:55;101259.16;;;11.66;100.00
67052;BME280;53957;47.222;18.670;2023-01-01T15:51:13;101259.03;;;11.24;100.00
67052;BME280;53957;47.222;18.670;2023-01-01T15:54:19;101260.81;;;11.03;100.00
67052;BME280;53957;47.222;18.670;2023-01-01T15:57:22;101264.56;;;11.07;100.00
67052;BME280;53957;47.222;18.670;2023-01-01T16:00:28;101252.66;;;10.77;100.00
67052;BME280;53957;47.222;18.670;2023-01-01T16:03:34;101256.28;;;11.04;100.00
67052;BME280;53957;47.222;18.670;2023-01-01T16:06:43;101253.69;;;10.71;100.00
67052;BME280;53957;47.222;18.670;2023-01-01T16:09:48;101258.75;;;10.68;100.00
67052;BME280;53957;47.222;18.670;2023-01-01T16:12:59;101259.16;;;10.97;100.00
67052;BME280;53957;47.222;18.670;2023-01-01T16:19:25;101267.50;;;11.06;100.00
67052;BME280;53957;47.222;18.670;2023-01-01T16:22:29;101273.91;;;10.62;100.00
67052;BME280;53957;47.222;18.670;2023-01-01T16:25:38;101276.16;;;10.43;100.00
67052;BME280;53957;47.222;18.670;2023-01-01T16:28:41;101275.03;;;10.34;100.00
67052;BME280;53957;47.222;18.670;2023-01-01T16:31:44;101282.44;;;10.26;100.00
67052;BME280;53957;47.222;18.670;2023-01-01T16:34:49;101286.06;;;10.15;100.00
67052;BME280;53957;47.222;18.670;2023-01-01T16:37:52;101283.94;;;10.17;100.00
67052;BME280;53957;47.222;18.670;2023-01-01T16:40:55;101292.94;;;10.11;100.00
67052;BME280;53957;47.222;18.670;2023-01-01T16:43:59;101292.34;;;10.31;100.00
67052;BME280;53957;47.222;18.670;2023-01-01T16:47:03;101290.38;;;10.49;100.00
67052;BME280;53957;47.222;18.670;2023-01-01T16:50:14;101289.84;;;10.52;100.00
67052;BME280;53957;47.222;18.670;2023-01-01T16:53:21;101296.50;;;10.22;100.00
67052;BME280;53957;47.222;18.670;2023-01-01T16:56:28;101293.06;;;10.21;100.00
67052;BME280;53957;47.222;18.670;2023-01-01T16:59:32;101296.31;;;10.01;100.00
67052;BME280;53957;47.222;18.670;2023-01-01T17:02:35;101293.16;;;9.77;100.00
67052;BME280;53957;47.222;18.670;2023-01-01T17:05:39;101298.66;;;9.70;100.00
67052;BME280;53957;47.222;18.670;2023-01-01T17:09:06;101292.06;;;9.50;100.00
67052;BME280;53957;47.222;18.670;2023-01-01T17:12:18;101292.25;;;9.44;100.00
67052;BME280;53957;47.222;18.670;2023-01-01T17:15:21;101302.41;;;9.25;100.00
67052;BME280;53957;47.222;18.670;2023-01-01T17:18:25;101297.38;;;9.50;100.00
67052;BME280;53957;47.222;18.670;2023-01-01T17:21:49;101300.34;;;9.32;100.00
67052;BME280;53957;47.222;18.670;2023-01-01T17:24:56;101298.56;;;9.38;100.00
67052;BME280;53957;47.222;18.670;2023-01-01T17:27:59;101293.16;;;9.10;100.00
67052;BME280;53957;47.222;18.670;2023-01-01T17:31:08;101297.09;;;8.85;100.00
67052;BME280;53957;47.222;18.670;2023-01-01T17:34:13;101306.97;;;8.90;100.00
67052;BME280;53957;47.222;18.670;2023-01-01T17:37:16;101305.78;;;8.81;100.00
67052;BME280;53957;47.222;18.670;2023-01-01T17:40:19;101310.00;;;8.77;100.00
67052;BME280;53957;47.222;18.670;2023-01-01T17:43:23;101309.50;;;8.80;100.00
67052;BME280;53957;47.222;18.670;2023-01-01T17:46:27;101301.91;;;8.72;100.00
67052;BME280;53957;47.222;18.670;2023-01-01T17:49:37;101312.34;;;8.73;100.00
67052;BME280;53957;47.222;18.670;2023-01-01T17:52:41;101315.13;;;8.66;100.00
67052;BME280;53957;47.222;18.670;2023-01-01T17:55:45;101319.66;;;8.66;100.00
67052;BME280;53957;47.222;18.670;2023-01-01T17:58:54;101325.63;;;8.56;100.00
67052;BME280;53957;47.222;18.670;2023-01-01T18:01:59;101325.63;;;8.56;100.00
67052;BME280;53957;47.222;18.670;2023-01-01T18:05:06;101315.13;;;8.66;100.00
67052;BME280;53957;47.222;18.670;2023-01-01T18:08:09;101326.75;;;8.60;100.00
67052;BME280;53957;47.222;18.670;2023-01-01T18:11:13;101325.63;;;8.56;100.00
67052;BME280;53957;47.222;18.670;2023-01-01T18:14:16;101320.78;;;8.87;100.00
67052;BME280;53957;47.222;18.670;2023-01-01T18:17:26;101323.28;;;8.77;100.00
67052;BME280;53957;47.222;18.670;2023-01-01T18:20:31;101322.22;;;8.95;100.00
67052;BME280;53957;47.222;18.670;2023-01-01T18:23:36;101332.72;;;8.67;100.00
67052;BME280;53957;47.222;18.670;2023-01-01T18:26:41;101330.94;;;8.73;100.00
67052;BME280;53957;47.222;18.670;2023-01-01T18:29:45;101330.62;;;8.69;100.00
67052;BME280;53957;47.222;18.670;2023-01-01T18:32:49;101318.13;;;8.53;100.00
67052;BME280;53957;47.222;18.670;2023-01-01T18:35:55;101320.06;;;8.75;100.00
67052;BME280;53957;47.222;18.670;2023-01-01T18:42:20;101326.28;;;8.34;100.00